sensor_id;sensor_type;location;lat;lon;timestamp;P1;durP1;ratioP1;P2;durP2;ratioP2
35919;SDS011;36160;53.370;-6.196;2022-09-20T00:01:06;10.88;;;6.18;;
35919;SDS011;36160;53.370;-6.196;2022-09-20T00:03:40;15.25;;;6.97;;
35919;SDS011;36160;53.370;-6.196;2022-09-20T00:06:08;10.82;;;6.57;;
35919;SDS011;36160;53.370;-6.196;2022-09-20T00:08:37;11.52;;;6.25;;
35919;SDS011;36160;53.370;-6.196;2022-09-20T00:11:03;11.75;;;6.75;;
35919;SDS011;36160;53.370;-6.196;2022-09-20T00:13:31;12.18;;;6.57;;
35919;SDS011;36160;53.370;-6.196;2022-09-20T00:15:58;10.35;;;7.50;;
35919;SDS011;36160;53.370;-6.196;2022-09-20T00:18:28;12.90;;;6.95;;
35919;SDS011;36160;53.370;-6.196;2022-09-20T00:20:53;16.52;;;7.28;;
35919;SDS011;36160;53.370;-6.196;2022-09-20T00:23:19;10.93;;;6.25;;
35919;SDS011;36160;53.370;-6.196;2022-09-20T00:25:53;8.60;;;5.55;;
35919;SDS011;36160;53.370;-6.196;2022-09-20T00:28:23;10.43;;;6.78;;
35919;SDS011;36160;53.370;-6.196;2022-09-20T00:30:49;11.95;;;6.57;;
35919;SDS011;36160;53.370;-6.196;2022-09-20T00:33:16;12.13;;;7.15;;
35919;SDS011;36160;53.370;-6.196;2022-09-20T00:35:42;11.75;;;6.85;;
35919;SDS011;36160;53.370;-6.196;2022-09-20T00:38:08;14.50;;;6.65;;
35919;SDS011;36160;53.370;-6.196;2022-09-20T00:40:34;10.93;;;6.88;;
35919;SDS011;36160;53.370;-6.196;2022-09-20T00:43:00;10.38;;;6.35;;
35919;SDS011;36160;53.370;-6.196;2022-09-20T00:45:29;9.93;;;6.80;;
35919;SDS011;36160;53.370;-6.196;2022-09-20T00:55:44;11.48;;;7.10;;
35919;SDS011;36160;53.370;-6.196;2022-09-20T00:58:15;12.57;;;6.38;;
35919;SDS011;36160;53.370;-6.196;2022-09-20T01:00:43;14.32;;;7.10;;
35919;SDS011;36160;53.370;-6.196;2022-09-20T01:03:10;12.25;;;6.95;;
35919;SDS011;36160;53.370;-6.196;2022-09-20T01:05:39;13.40;;;7.63;;
35919;SDS011;36160;53.370;-6.196;2022-09-20T01:08:07;11.82;;;6.88;;
35919;SDS011;36160;53.370;-6.196;2022-09-20T01:10:34;12.23;;;6.38;;
35919;SDS011;36160;53.370;-6.196;2022-09-20T01:13:01;11.82;;;6.53;;
35919;SDS011;36160;53.370;-6.196;2022-09-20T01:15:27;14.88;;;6.40;;
35919;SDS011;36160;53.370;-6.196;2022-09-20T01:17:55;10.05;;;6.10;;
35919;SDS011;36160;53.370;-6.196;2022-09-20T01:28:43;13.20;;;7.03;;
35919;SDS011;36160;53.370;-6.196;2022-09-20T01:36:22;11.35;;;6.30;;
35919;SDS011;36160;53.370;-6.196;2022-09-20T01:41:50;11.63;;;6.80;;
35919;SDS011;36160;53.370;-6.196;2022-09-20T01:59:04;12.73;;;6.53;;
35919;SDS011;36160;53.370;-6.196;2022-09-20T02:01:31;10.32;;;5.97;;
35919;SDS011;36160;53.370;-6.196;2022-09-20T02:13:05;9.95;;;6.13;;
35919;SDS011;36160;53.370;-6.196;2022-09-20T02:24:11;9.93;;;5.60;;
35919;SDS011;36160;53.370;-6.196;2022-09-20T02:38:00;9.00;;;5.45;;
35919;SDS011;36160;53.370;-6.196;2022-09-20T02:40:55;10.52;;;5.30;;
35919;SDS011;36160;53.370;-6.196;2022-09-20T02:43:45;10.45;;;5.82;;
35919;SDS011;36160;53.370;-6.196;2022-09-20T02:46:37;7.85;;;4.93;;
35919;SDS011;36160;53.370;-6.196;2022-09-20T02:49:25;7.97;;;5.28;;
35919;SDS011;36160;53.370;-6.196;2022-09-20T02:52:04;10.27;;;5.80;;
35919;SDS011;36160;53.370;-6.196;2022-09-20T02:54:45;8.82;;;5.13;;
35919;SDS011;36160;53.370;-6.196;2022-09-20T02:57:19;8.15;;;5.10;;
35919;SDS011;36160;53.370;-6.196;2022-09-20T03:05:42;9.23;;;5.00;;
35919;SDS011;36160;53.370;-6.196;2022-09-20T03:22:20;7.70;;;5.00;;
35919;SDS011;36160;53.370;-6.196;2022-09-20T03:25:18;8.40;;;5.38;;
35919;SDS011;36160;53.370;-6.196;2022-09-20T03:46:26;12.02;;;5.75;;
35919;SDS011;36160;53.370;-6.196;2022-09-20T03:49:11;7.70;;;5.13;;
35919;SDS011;36160;53.370;-6.196;2022-09-20T03:54:58;8.85;;;5.15;;
35919;SDS011;36160;53.370;-6.196;2022-09-20T04:08:47;8.93;;;4.60;;
35919;SDS011;36160;53.370;-6.196;2022-09-20T04:11:29;9.45;;;5.13;;
35919;SDS011;36160;53.370;-6.196;2022-09-20T04:14:13;7.20;;;4.82;;
35919;SDS011;36160;53.370;-6.196;2022-09-20T04:21:59;8.45;;;5.18;;
35919;SDS011;36160;53.370;-6.196;2022-09-20T04:27:16;7.70;;;4.97;;
35919;SDS011;36160;53.370;-6.196;2022-09-20T04:29:58;9.57;;;5.55;;
35919;SDS011;36160;53.370;-6.196;2022-09-20T04:33:02;8.90;;;5.30;;
35919;SDS011;36160;53.370;-6.196;2022-09-20T04:36:02;7.65;;;4.53;;
35919;SDS011;36160;53.370;-6.196;2022-09-20T04:38:58;8.35;;;4.80;;
35919;SDS011;36160;53.370;-6.196;2022-09-20T04:53:05;9.45;;;5.47;;
35919;SDS011;36160;53.370;-6.196;2022-09-20T05:08:58;10.20;;;6.18;;
35919;SDS011;36160;53.370;-6.196;2022-09-20T05:14:27;13.25;;;6.70;;
35919;SDS011;36160;53.370;-6.196;2022-09-20T05:20:14;11.02;;;6.32;;
35919;SDS011;36160;53.370;-6.196;2022-09-20T05:28:24;13.48;;;6.75;;
35919;SDS011;36160;53.370;-6.196;2022-09-20T05:34:26;8.70;;;5.90;;
35919;SDS011;36160;53.370;-6.196;2022-09-20T05:40:04;9.45;;;5.13;;
35919;SDS011;36160;53.370;-6.196;2022-09-20T05:42:38;13.15;;;5.97;;
35919;SDS011;36160;53.370;-6.196;2022-09-20T05:48:20;7.75;;;4.80;;
35919;SDS011;36160;53.370;-6.196;2022-09-20T05:51:08;11.27;;;5.78;;
35919;SDS011;36160;53.370;-6.196;2022-09-20T05:54:07;7.82;;;5.70;;
35919;SDS011;36160;53.370;-6.196;2022-09-20T05:57:04;9.23;;;5.85;;
35919;SDS011;36160;53.370;-6.196;2022-09-20T05:59:52;11.70;;;6.60;;
35919;SDS011;36160;53.370;-6.196;2022-09-20T06:06:30;7.32;;;5.45;;
35919;SDS011;36160;53.370;-6.196;2022-09-20T06:17:33;11.50;;;6.50;;
35919;SDS011;36160;53.370;-6.196;2022-09-20T06:22:56;13.95;;;7.10;;
35919;SDS011;36160;53.370;-6.196;2022-09-20T06:26:09;9.38;;;6.32;;
35919;SDS011;36160;53.370;-6.196;2022-09-20T06:28:23;9.57;;;5.90;;
35919;SDS011;36160;53.370;-6.196;2022-09-20T06:31:02;11.23;;;5.97;;
35919;SDS011;36160;53.370;-6.196;2022-09-20T06:33:44;9.00;;;5.95;;
35919;SDS011;36160;53.370;-6.196;2022-09-20T06:36:32;9.68;;;5.80;;
35919;SDS011;36160;53.370;-6.196;2022-09-20T06:42:16;9.88;;;5.53;;
35919;SDS011;36160;53.370;-6.196;2022-09-20T06:44:42;10.32;;;5.47;;
35919;SDS011;36160;53.370;-6.196;2022-09-20T06:47:08;18.88;;;6.50;;
35919;SDS011;36160;53.370;-6.196;2022-09-20T06:49:35;14.75;;;6.70;;
35919;SDS011;36160;53.370;-6.196;2022-09-20T06:52:04;11.40;;;6.53;;
35919;SDS011;36160;53.370;-6.196;2022-09-20T06:54:31;11.73;;;6.47;;
35919;SDS011;36160;53.370;-6.196;2022-09-20T06:56:57;14.38;;;6.63;;
35919;SDS011;36160;53.370;-6.196;2022-09-20T06:59:27;15.65;;;7.30;;
35919;SDS011;36160;53.370;-6.196;2022-09-20T07:01:53;14.15;;;6.55;;
35919;SDS011;36160;53.370;-6.196;2022-09-20T07:04:18;12.10;;;5.88;;
35919;SDS011;36160;53.370;-6.196;2022-09-20T07:06:46;16.63;;;7.13;;
35919;SDS011;36160;53.370;-6.196;2022-09-20T07:09:12;10.80;;;5.82;;
35919;SDS011;36160;53.370;-6.196;2022-09-20T07:11:38;16.25;;;6.95;;
35919;SDS011;36160;53.370;-6.196;2022-09-20T07:14:03;15.77;;;7.60;;
35919;SDS011;36160;53.370;-6.196;2022-09-20T07:16:31;13.35;;;7.18;;
35919;SDS011;36160;53.370;-6.196;2022-09-20T07:19:00;15.55;;;7.60;;
35919;SDS011;36160;53.370;-6.196;2022-09-20T07:21:26;10.57;;;6.65;;
35919;SDS011;36160;53.370;-6.196;2022-09-20T07:23:52;14.10;;;7.97;;
35919;SDS011;36160;53.370;-6.196;2022-09-20T07:26:22;10.23;;;6.13;;
35919;SDS011;36160;53.370;-6.196;2022-09-20T07:28:50;13.90;;;6.88;;
35919;SDS011;36160;53.370;-6.196;2022-09-20T07:31:20;20.35;;;8.73;;
35919;SDS011;36160;53.370;-6.196;2022-09-20T07:33:47;20.60;;;7.38;;
35919;SDS011;36160;53.370;-6.196;2022-09-20T07:36:13;12.93;;;7.80;;
35919;SDS011;36160;53.370;-6.196;2022-09-20T07:38:39;16.10;;;8.27;;
35919;SDS011;36160;53.370;-6.196;2022-09-20T07:41:06;26.92;;;9.38;;
35919;SDS011;36160;53.370;-6.196;2022-09-20T07:43:32;17.08;;;7.63;;
35919;SDS011;36160;53.370;-6.196;2022-09-20T07:45:58;23.77;;;7.63;;
35919;SDS011;36160;53.370;-6.196;2022-09-20T07:48:25;21.85;;;9.95;;
35919;SDS011;36160;53.370;-6.196;2022-09-20T07:50:53;23.63;;;8.43;;
35919;SDS011;36160;53.370;-6.196;2022-09-20T07:53:27;22.20;;;7.72;;
35919;SDS011;36160;53.370;-6.196;2022-09-20T07:58:22;15.55;;;7.50;;
35919;SDS011;36160;53.370;-6.196;2022-09-20T08:00:51;23.10;;;7.47;;
35919;SDS011;36160;53.370;-6.196;2022-09-20T08:03:18;19.80;;;6.95;;
35919;SDS011;36160;53.370;-6.196;2022-09-20T08:05:44;13.60;;;7.68;;
35919;SDS011;36160;53.370;-6.196;2022-09-20T08:08:10;12.05;;;7.20;;
35919;SDS011;36160;53.370;-6.196;2022-09-20T08:10:36;16.98;;;7.72;;
35919;SDS011;36160;53.370;-6.196;2022-09-20T08:13:05;11.40;;;6.70;;
35919;SDS011;36160;53.370;-6.196;2022-09-20T08:15:31;18.92;;;7.55;;
35919;SDS011;36160;53.370;-6.196;2022-09-20T08:17:57;15.90;;;6.40;;
35919;SDS011;36160;53.370;-6.196;2022-09-20T08:20:22;26.08;;;7.90;;
35919;SDS011;36160;53.370;-6.196;2022-09-20T08:22:48;17.35;;;7.63;;
35919;SDS011;36160;53.370;-6.196;2022-09-20T08:25:14;30.77;;;8.85;;
35919;SDS011;36160;53.370;-6.196;2022-09-20T08:27:41;21.38;;;8.43;;
35919;SDS011;36160;53.370;-6.196;2022-09-20T08:30:07;20.63;;;8.30;;
35919;SDS011;36160;53.370;-6.196;2022-09-20T08:32:34;17.38;;;7.82;;
35919;SDS011;36160;53.370;-6.196;2022-09-20T08:35:02;23.23;;;9.05;;
35919;SDS011;36160;53.370;-6.196;2022-09-20T08:37:28;15.15;;;8.40;;
35919;SDS011;36160;53.370;-6.196;2022-09-20T08:39:54;17.77;;;7.32;;
35919;SDS011;36160;53.370;-6.196;2022-09-20T08:42:25;16.85;;;7.65;;
35919;SDS011;36160;53.370;-6.196;2022-09-20T08:44:57;15.32;;;6.97;;
35919;SDS011;36160;53.370;-6.196;2022-09-20T08:47:28;14.85;;;6.35;;
35919;SDS011;36160;53.370;-6.196;2022-09-20T08:50:03;12.98;;;7.03;;
35919;SDS011;36160;53.370;-6.196;2022-09-20T08:52:32;11.43;;;6.53;;
35919;SDS011;36160;53.370;-6.196;2022-09-20T08:55:01;14.38;;;6.35;;
35919;SDS011;36160;53.370;-6.196;2022-09-20T08:57:31;13.00;;;6.18;;
35919;SDS011;36160;53.370;-6.196;2022-09-20T09:00:00;11.20;;;6.65;;
35919;SDS011;36160;53.370;-6.196;2022-09-20T09:02:29;14.73;;;6.70;;
35919;SDS011;36160;53.370;-6.196;2022-09-20T09:04:56;9.55;;;6.57;;
35919;SDS011;36160;53.370;-6.196;2022-09-20T09:07:22;14.48;;;6.68;;
35919;SDS011;36160;53.370;-6.196;2022-09-20T09:09:50;11.63;;;6.93;;
35919;SDS011;36160;53.370;-6.196;2022-09-20T09:12:25;13.38;;;7.22;;
35919;SDS011;36160;53.370;-6.196;2022-09-20T09:15:11;14.55;;;7.60;;
35919;SDS011;36160;53.370;-6.196;2022-09-20T09:17:48;16.20;;;7.05;;
35919;SDS011;36160;53.370;-6.196;2022-09-20T09:20:18;18.95;;;7.35;;
35919;SDS011;36160;53.370;-6.196;2022-09-20T09:23:01;14.38;;;8.13;;
35919;SDS011;36160;53.370;-6.196;2022-09-20T09:25:32;17.65;;;7.82;;
35919;SDS011;36160;53.370;-6.196;2022-09-20T09:30:42;18.13;;;7.45;;
35919;SDS011;36160;53.370;-6.196;2022-09-20T09:35:56;9.48;;;6.00;;
35919;SDS011;36160;53.370;-6.196;2022-09-20T09:38:36;11.82;;;6.60;;
35919;SDS011;36160;53.370;-6.196;2022-09-20T09:41:28;13.70;;;5.82;;
35919;SDS011;36160;53.370;-6.196;2022-09-20T09:44:01;13.77;;;5.53;;
35919;SDS011;36160;53.370;-6.196;2022-09-20T09:46:34;13.77;;;7.20;;
35919;SDS011;36160;53.370;-6.196;2022-09-20T09:54:25;8.50;;;4.90;;
35919;SDS011;36160;53.370;-6.196;2022-09-20T10:31:33;8.82;;;4.95;;
35919;SDS011;36160;53.370;-6.196;2022-09-20T10:36:59;9.80;;;5.40;;
35919;SDS011;36160;53.370;-6.196;2022-09-20T10:39:32;7.55;;;4.30;;
35919;SDS011;36160;53.370;-6.196;2022-09-20T10:45:18;5.57;;;4.22;;
35919;SDS011;36160;53.370;-6.196;2022-09-20T10:48:07;8.32;;;5.78;;
35919;SDS011;36160;53.370;-6.196;2022-09-20T10:56:25;7.75;;;4.70;;
35919;SDS011;36160;53.370;-6.196;2022-09-20T11:01:29;9.77;;;4.28;;
35919;SDS011;36160;53.370;-6.196;2022-09-20T11:07:13;6.93;;;4.43;;
35919;SDS011;36160;53.370;-6.196;2022-09-20T11:09:56;11.38;;;5.70;;
35919;SDS011;36160;53.370;-6.196;2022-09-20T11:12:28;8.35;;;4.82;;
35919;SDS011;36160;53.370;-6.196;2022-09-20T11:15:03;6.97;;;4.28;;
35919;SDS011;36160;53.370;-6.196;2022-09-20T11:17:40;8.27;;;5.03;;
35919;SDS011;36160;53.370;-6.196;2022-09-20T11:20:36;10.20;;;5.28;;
35919;SDS011;36160;53.370;-6.196;2022-09-20T11:23:17;8.13;;;5.30;;
35919;SDS011;36160;53.370;-6.196;2022-09-20T11:25:51;15.57;;;6.38;;
35919;SDS011;36160;53.370;-6.196;2022-09-20T11:31:08;7.97;;;4.97;;
35919;SDS011;36160;53.370;-6.196;2022-09-20T11:36:44;10.95;;;5.85;;
35919;SDS011;36160;53.370;-6.196;2022-09-20T11:39:14;9.02;;;4.65;;
35919;SDS011;36160;53.370;-6.196;2022-09-20T11:41:45;9.05;;;4.63;;
35919;SDS011;36160;53.370;-6.196;2022-09-20T11:44:14;10.63;;;4.90;;
35919;SDS011;36160;53.370;-6.196;2022-09-20T11:57:27;7.65;;;4.88;;
35919;SDS011;36160;53.370;-6.196;2022-09-20T11:59:55;9.93;;;5.13;;
35919;SDS011;36160;53.370;-6.196;2022-09-20T12:02:34;9.23;;;5.80;;
35919;SDS011;36160;53.370;-6.196;2022-09-20T12:05:19;7.20;;;5.25;;
35919;SDS011;36160;53.370;-6.196;2022-09-20T12:08:00;8.43;;;5.18;;
35919;SDS011;36160;53.370;-6.196;2022-09-20T12:10:30;6.45;;;5.00;;
35919;SDS011;36160;53.370;-6.196;2022-09-20T12:13:03;7.30;;;5.13;;
35919;SDS011;36160;53.370;-6.196;2022-09-20T12:15:32;9.70;;;5.85;;
35919;SDS011;36160;53.370;-6.196;2022-09-20T12:18:11;7.82;;;4.90;;
35919;SDS011;36160;53.370;-6.196;2022-09-20T12:21:00;8.95;;;5.43;;
35919;SDS011;36160;53.370;-6.196;2022-09-20T12:29:00;5.75;;;4.55;;
35919;SDS011;36160;53.370;-6.196;2022-09-20T12:31:47;9.15;;;5.18;;
35919;SDS011;36160;53.370;-6.196;2022-09-20T12:36:43;7.72;;;5.70;;
35919;SDS011;36160;53.370;-6.196;2022-09-20T12:39:36;7.25;;;6.13;;
35919;SDS011;36160;53.370;-6.196;2022-09-20T12:52:30;10.30;;;5.97;;
35919;SDS011;36160;53.370;-6.196;2022-09-20T12:57:54;9.93;;;7.30;;
35919;SDS011;36160;53.370;-6.196;2022-09-20T13:00:33;9.95;;;6.20;;
35919;SDS011;36160;53.370;-6.196;2022-09-20T13:19:23;11.27;;;7.20;;
35919;SDS011;36160;53.370;-6.196;2022-09-20T13:24:24;10.25;;;7.20;;
35919;SDS011;36160;53.370;-6.196;2022-09-20T13:26:54;10.73;;;6.97;;
35919;SDS011;36160;53.370;-6.196;2022-09-20T13:29:33;23.50;;;7.30;;
35919;SDS011;36160;53.370;-6.196;2022-09-20T13:37:44;12.18;;;7.68;;
35919;SDS011;36160;53.370;-6.196;2022-09-20T13:40:20;8.85;;;6.15;;
35919;SDS011;36160;53.370;-6.196;2022-09-20T13:42:50;14.10;;;6.28;;
35919;SDS011;36160;53.370;-6.196;2022-09-20T13:45:18;9.75;;;6.28;;
35919;SDS011;36160;53.370;-6.196;2022-09-20T13:47:50;10.77;;;6.50;;
35919;SDS011;36160;53.370;-6.196;2022-09-20T13:55:28;9.05;;;6.03;;
35919;SDS011;36160;53.370;-6.196;2022-09-20T14:00:27;6.25;;;5.05;;
35919;SDS011;36160;53.370;-6.196;2022-09-20T14:02:55;11.15;;;5.82;;
35919;SDS011;36160;53.370;-6.196;2022-09-20T14:05:23;12.02;;;5.82;;
35919;SDS011;36160;53.370;-6.196;2022-09-20T14:07:50;8.93;;;6.40;;
35919;SDS011;36160;53.370;-6.196;2022-09-20T14:10:33;8.63;;;6.28;;
35919;SDS011;36160;53.370;-6.196;2022-09-20T14:13:03;9.88;;;6.30;;
35919;SDS011;36160;53.370;-6.196;2022-09-20T14:15:38;12.95;;;6.22;;
35919;SDS011;36160;53.370;-6.196;2022-09-20T14:18:08;10.82;;;6.93;;
35919;SDS011;36160;53.370;-6.196;2022-09-20T14:20:42;7.90;;;6.07;;
35919;SDS011;36160;53.370;-6.196;2022-09-20T14:23:20;11.27;;;6.57;;
35919;SDS011;36160;53.370;-6.196;2022-09-20T14:28:52;10.85;;;5.60;;
35919;SDS011;36160;53.370;-6.196;2022-09-20T14:31:28;9.57;;;6.18;;
35919;SDS011;36160;53.370;-6.196;2022-09-20T14:33:57;11.15;;;7.28;;
35919;SDS011;36160;53.370;-6.196;2022-09-20T14:36:26;12.02;;;7.75;;
35919;SDS011;36160;53.370;-6.196;2022-09-20T14:38:57;17.05;;;6.97;;
35919;SDS011;36160;53.370;-6.196;2022-09-20T14:41:35;16.95;;;8.02;;
35919;SDS011;36160;53.370;-6.196;2022-09-20T14:44:03;13.45;;;8.20;;
35919;SDS011;36160;53.370;-6.196;2022-09-20T14:46:34;16.13;;;9.13;;
35919;SDS011;36160;53.370;-6.196;2022-09-20T14:57:37;16.17;;;9.90;;
35919;SDS011;36160;53.370;-6.196;2022-09-20T15:00:04;13.02;;;8.10;;
35919;SDS011;36160;53.370;-6.196;2022-09-20T15:02:36;22.55;;;10.13;;
35919;SDS011;36160;53.370;-6.196;2022-09-20T15:05:14;13.63;;;9.23;;
35919;SDS011;36160;53.370;-6.196;2022-09-20T15:07:43;15.52;;;9.07;;
35919;SDS011;36160;53.370;-6.196;2022-09-20T15:10:12;12.48;;;9.07;;
35919;SDS011;36160;53.370;-6.196;2022-09-20T15:12:38;13.00;;;8.20;;
35919;SDS011;36160;53.370;-6.196;2022-09-20T15:15:04;11.55;;;7.10;;
35919;SDS011;36160;53.370;-6.196;2022-09-20T15:17:30;10.43;;;7.38;;
35919;SDS011;36160;53.370;-6.196;2022-09-20T15:19:56;10.43;;;6.78;;
35919;SDS011;36160;53.370;-6.196;2022-09-20T15:22:22;12.25;;;6.28;;
35919;SDS011;36160;53.370;-6.196;2022-09-20T15:24:48;9.60;;;6.15;;
35919;SDS011;36160;53.370;-6.196;2022-09-20T15:27:13;11.88;;;6.93;;
35919;SDS011;36160;53.370;-6.196;2022-09-20T15:29:39;14.45;;;6.38;;
35919;SDS011;36160;53.370;-6.196;2022-09-20T15:32:05;12.15;;;6.15;;
35919;SDS011;36160;53.370;-6.196;2022-09-20T15:34:33;8.85;;;6.03;;
35919;SDS011;36160;53.370;-6.196;2022-09-20T15:36:59;11.55;;;5.05;;
35919;SDS011;36160;53.370;-6.196;2022-09-20T15:39:25;6.60;;;4.95;;
35919;SDS011;36160;53.370;-6.196;2022-09-20T15:41:51;9.90;;;6.90;;
35919;SDS011;36160;53.370;-6.196;2022-09-20T15:44:17;11.40;;;6.25;;
35919;SDS011;36160;53.370;-6.196;2022-09-20T15:46:43;7.35;;;5.70;;
35919;SDS011;36160;53.370;-6.196;2022-09-20T15:49:10;9.98;;;5.65;;
35919;SDS011;36160;53.370;-6.196;2022-09-20T15:51:36;11.88;;;6.28;;
35919;SDS011;36160;53.370;-6.196;2022-09-20T15:54:03;13.70;;;6.03;;
35919;SDS011;36160;53.370;-6.196;2022-09-20T15:56:32;11.70;;;5.60;;
35919;SDS011;36160;53.370;-6.196;2022-09-20T15:59:00;8.48;;;5.10;;
35919;SDS011;36160;53.370;-6.196;2022-09-20T16:01:31;12.47;;;7.13;;
35919;SDS011;36160;53.370;-6.196;2022-09-20T16:04:10;11.05;;;5.70;;
35919;SDS011;36160;53.370;-6.196;2022-09-20T16:06:38;13.80;;;5.55;;
35919;SDS011;36160;53.370;-6.196;2022-09-20T16:09:05;11.38;;;5.28;;
35919;SDS011;36160;53.370;-6.196;2022-09-20T16:11:32;14.02;;;5.50;;
35919;SDS011;36160;53.370;-6.196;2022-09-20T16:13:58;11.27;;;4.88;;
35919;SDS011;36160;53.370;-6.196;2022-09-20T16:16:25;9.57;;;5.35;;
35919;SDS011;36160;53.370;-6.196;2022-09-20T16:18:52;34.67;;;15.15;;
35919;SDS011;36160;53.370;-6.196;2022-09-20T16:21:38;31.15;;;13.18;;
35919;SDS011;36160;53.370;-6.196;2022-09-20T16:24:05;14.70;;;5.00;;
35919;SDS011;36160;53.370;-6.196;2022-09-20T16:26:31;18.13;;;7.30;;
35919;SDS011;36160;53.370;-6.196;2022-09-20T16:28:58;12.52;;;5.65;;
35919;SDS011;36160;53.370;-6.196;2022-09-20T16:34:26;13.52;;;5.82;;
35919;SDS011;36160;53.370;-6.196;2022-09-20T16:36:53;9.93;;;5.50;;
35919;SDS011;36160;53.370;-6.196;2022-09-20T16:39:22;10.15;;;5.57;;
35919;SDS011;36160;53.370;-6.196;2022-09-20T16:41:51;9.70;;;4.47;;
35919;SDS011;36160;53.370;-6.196;2022-09-20T16:44:29;13.63;;;5.78;;
35919;SDS011;36160;53.370;-6.196;2022-09-20T16:46:55;9.93;;;4.60;;
35919;SDS011;36160;53.370;-6.196;2022-09-20T16:49:22;15.57;;;6.50;;
35919;SDS011;36160;53.370;-6.196;2022-09-20T16:51:50;11.15;;;4.32;;
35919;SDS011;36160;53.370;-6.196;2022-09-20T16:54:16;10.05;;;5.60;;
35919;SDS011;36160;53.370;-6.196;2022-09-20T16:56:43;17.08;;;5.78;;
35919;SDS011;36160;53.370;-6.196;2022-09-20T16:59:11;13.52;;;6.07;;
35919;SDS011;36160;53.370;-6.196;2022-09-20T17:01:39;13.38;;;5.90;;
35919;SDS011;36160;53.370;-6.196;2022-09-20T17:04:05;8.85;;;4.95;;
35919;SDS011;36160;53.370;-6.196;2022-09-20T17:06:32;8.88;;;4.75;;
35919;SDS011;36160;53.370;-6.196;2022-09-20T17:08:59;6.72;;;4.60;;
35919;SDS011;36160;53.370;-6.196;2022-09-20T17:11:26;9.48;;;4.38;;
35919;SDS011;36160;53.370;-6.196;2022-09-20T17:13:53;6.65;;;4.80;;
35919;SDS011;36160;53.370;-6.196;2022-09-20T17:16:22;7.88;;;5.00;;
35919;SDS011;36160;53.370;-6.196;2022-09-20T17:18:59;7.13;;;5.25;;
35919;SDS011;36160;53.370;-6.196;2022-09-20T17:21:26;15.35;;;6.45;;
35919;SDS011;36160;53.370;-6.196;2022-09-20T17:23:54;10.80;;;4.78;;
35919;SDS011;36160;53.370;-6.196;2022-09-20T17:26:22;16.35;;;6.70;;
35919;SDS011;36160;53.370;-6.196;2022-09-20T17:28:50;8.77;;;5.18;;
35919;SDS011;36160;53.370;-6.196;2022-09-20T17:31:20;12.10;;;6.22;;
35919;SDS011;36160;53.370;-6.196;2022-09-20T17:33:48;8.75;;;4.75;;
35919;SDS011;36160;53.370;-6.196;2022-09-20T17:36:18;10.13;;;4.40;;
35919;SDS011;36160;53.370;-6.196;2022-09-20T17:38:46;11.50;;;5.45;;
35919;SDS011;36160;53.370;-6.196;2022-09-20T17:41:17;8.57;;;3.83;;
35919;SDS011;36160;53.370;-6.196;2022-09-20T17:43:44;8.15;;;5.05;;
35919;SDS011;36160;53.370;-6.196;2022-09-20T17:48:47;9.43;;;4.78;;
35919;SDS011;36160;53.370;-6.196;2022-09-20T17:51:15;8.57;;;4.82;;
35919;SDS011;36160;53.370;-6.196;2022-09-20T17:53:42;11.90;;;5.28;;
35919;SDS011;36160;53.370;-6.196;2022-09-20T17:56:09;9.15;;;4.57;;
35919;SDS011;36160;53.370;-6.196;2022-09-20T17:58:36;9.32;;;4.13;;
35919;SDS011;36160;53.370;-6.196;2022-09-20T18:01:21;8.40;;;4.70;;
35919;SDS011;36160;53.370;-6.196;2022-09-20T18:03:47;11.35;;;5.63;;
35919;SDS011;36160;53.370;-6.196;2022-09-20T18:06:14;11.77;;;4.78;;
35919;SDS011;36160;53.370;-6.196;2022-09-20T18:08:52;7.28;;;3.72;;
35919;SDS011;36160;53.370;-6.196;2022-09-20T18:11:21;7.13;;;4.40;;
35919;SDS011;36160;53.370;-6.196;2022-09-20T18:13:50;10.15;;;4.65;;
35919;SDS011;36160;53.370;-6.196;2022-09-20T18:16:16;7.15;;;4.45;;
35919;SDS011;36160;53.370;-6.196;2022-09-20T18:18:42;5.15;;;3.85;;
35919;SDS011;36160;53.370;-6.196;2022-09-20T18:23:40;6.97;;;3.70;;
35919;SDS011;36160;53.370;-6.196;2022-09-20T18:26:11;7.68;;;4.82;;
35919;SDS011;36160;53.370;-6.196;2022-09-20T18:31:23;7.72;;;4.50;;
35919;SDS011;36160;53.370;-6.196;2022-09-20T18:33:51;6.43;;;3.72;;
35919;SDS011;36160;53.370;-6.196;2022-09-20T18:36:18;7.53;;;4.72;;
35919;SDS011;36160;53.370;-6.196;2022-09-20T18:38:44;6.75;;;4.72;;
35919;SDS011;36160;53.370;-6.196;2022-09-20T18:41:10;6.90;;;4.28;;
35919;SDS011;36160;53.370;-6.196;2022-09-20T18:43:38;6.20;;;4.32;;
35919;SDS011;36160;53.370;-6.196;2022-09-20T18:46:10;8.57;;;4.93;;
35919;SDS011;36160;53.370;-6.196;2022-09-20T18:48:37;5.93;;;4.05;;
35919;SDS011;36160;53.370;-6.196;2022-09-20T18:51:04;5.43;;;3.78;;
35919;SDS011;36160;53.370;-6.196;2022-09-20T18:53:33;7.05;;;5.03;;
35919;SDS011;36160;53.370;-6.196;2022-09-20T18:56:06;7.72;;;4.68;;
35919;SDS011;36160;53.370;-6.196;2022-09-20T19:01:14;8.02;;;4.38;;
35919;SDS011;36160;53.370;-6.196;2022-09-20T19:04:24;8.18;;;4.57;;
35919;SDS011;36160;53.370;-6.196;2022-09-20T19:07:09;7.00;;;4.28;;
35919;SDS011;36160;53.370;-6.196;2022-09-20T19:12:32;7.28;;;4.60;;
35919;SDS011;36160;53.370;-6.196;2022-09-20T19:21:26;5.68;;;4.55;;
35919;SDS011;36160;53.370;-6.196;2022-09-20T19:28:47;10.43;;;5.13;;
35919;SDS011;36160;53.370;-6.196;2022-09-20T19:31:27;7.25;;;5.00;;
35919;SDS011;36160;53.370;-6.196;2022-09-20T19:33:55;8.32;;;4.88;;
35919;SDS011;36160;53.370;-6.196;2022-09-20T19:36:24;6.78;;;4.90;;
35919;SDS011;36160;53.370;-6.196;2022-09-20T19:39:06;10.25;;;4.97;;
35919;SDS011;36160;53.370;-6.196;2022-09-20T19:41:47;6.97;;;4.50;;
35919;SDS011;36160;53.370;-6.196;2022-09-20T19:50:22;8.18;;;5.65;;
35919;SDS011;36160;53.370;-6.196;2022-09-20T19:52:57;10.18;;;6.72;;
35919;SDS011;36160;53.370;-6.196;2022-09-20T19:55:27;12.20;;;5.85;;
35919;SDS011;36160;53.370;-6.196;2022-09-20T19:57:57;9.57;;;5.63;;
35919;SDS011;36160;53.370;-6.196;2022-09-20T20:00:23;12.15;;;5.68;;
35919;SDS011;36160;53.370;-6.196;2022-09-20T20:02:49;10.18;;;5.55;;
35919;SDS011;36160;53.370;-6.196;2022-09-20T20:05:17;9.90;;;5.38;;
35919;SDS011;36160;53.370;-6.196;2022-09-20T20:07:46;8.07;;;5.78;;
35919;SDS011;36160;53.370;-6.196;2022-09-20T20:10:52;9.52;;;5.88;;
35919;SDS011;36160;53.370;-6.196;2022-09-20T20:22:17;13.05;;;6.50;;
35919;SDS011;36160;53.370;-6.196;2022-09-20T20:25:07;9.25;;;6.03;;
35919;SDS011;36160;53.370;-6.196;2022-09-20T20:28:02;7.80;;;5.32;;
35919;SDS011;36160;53.370;-6.196;2022-09-20T20:30:28;8.82;;;5.28;;
35919;SDS011;36160;53.370;-6.196;2022-09-20T20:32:55;9.40;;;5.70;;
35919;SDS011;36160;53.370;-6.196;2022-09-20T20:35:23;10.13;;;6.35;;
35919;SDS011;36160;53.370;-6.196;2022-09-20T20:37:52;11.40;;;5.50;;
35919;SDS011;36160;53.370;-6.196;2022-09-20T20:40:18;11.18;;;6.47;;
35919;SDS011;36160;53.370;-6.196;2022-09-20T20:42:44;11.05;;;5.88;;
35919;SDS011;36160;53.370;-6.196;2022-09-20T20:45:09;10.95;;;6.28;;
35919;SDS011;36160;53.370;-6.196;2022-09-20T20:47:36;16.40;;;5.93;;
35919;SDS011;36160;53.370;-6.196;2022-09-20T20:50:04;8.80;;;5.38;;
35919;SDS011;36160;53.370;-6.196;2022-09-20T20:52:30;7.88;;;5.18;;
35919;SDS011;36160;53.370;-6.196;2022-09-20T20:54:56;6.82;;;4.82;;
35919;SDS011;36160;53.370;-6.196;2022-09-20T20:57:24;11.43;;;5.30;;
35919;SDS011;36160;53.370;-6.196;2022-09-20T20:59:50;8.70;;;4.50;;
35919;SDS011;36160;53.370;-6.196;2022-09-20T21:02:17;8.93;;;4.72;;
35919;SDS011;36160;53.370;-6.196;2022-09-20T21:04:43;8.75;;;4.57;;
35919;SDS011;36160;53.370;-6.196;2022-09-20T21:07:09;7.70;;;4.55;;
35919;SDS011;36160;53.370;-6.196;2022-09-20T21:09:35;7.35;;;4.55;;
35919;SDS011;36160;53.370;-6.196;2022-09-20T21:12:01;8.38;;;4.43;;
35919;SDS011;36160;53.370;-6.196;2022-09-20T21:14:27;7.75;;;3.90;;